• Join FlightAware (Why Join?)
  • Login
  • US Flag 
09:03AM EDT


 

Airport Tracker/Info


-or-


 

Live Flight TrackerFlight Track Log ✈ N386JC ✈ 13-Oct-2013 ✈ KCAK - KJAN

Flight Track Log - Related Links

Times and Time Zones

All times are in EDT time to prevent confusion due to time zone crossing. See the N386JC flight status page for this flight to view local times or setup timezone preferences in your user account.

Time Position Orientation Groundspeed Altitude Reporting Facility
EDT Latitude Longitude Course Direction KTS MPH feet Rate Location/Type
10:06AM 40.8928 -81.4753 209° Southwest 209 241 2,800  Level Indianapolis Center
10:08AM 40.8194 -81.5289 209° Southwest 259 298 7,200 3,420 Climbing Cleveland Center
10:09AM 40.7483 -81.5711 204° Southwest 274 315 10,400 3,480 Climbing Cleveland Center
10:10AM 40.6728 -81.6164 204° Southwest 292 336 14,500 3,600 Climbing Cleveland Center
10:10AM 40.6039 -81.6583 205° Southwest 317 365 17,300 3,000 Climbing Indianapolis Center
10:12AM 40.4997 -81.7214 205° Southwest 347 399 20,200 2,700 Climbing Indianapolis Center
10:13AM 40.4467 -81.8419 240° Southwest 377 434 22,900 2,460 Climbing Indianapolis Center
10:14AM 40.3956 -81.9700 242° Southwest 389 448 25,300 2,220 Climbing Indianapolis Center
10:15AM 40.3431 -82.1042 243° Southwest 406 467 27,600 2,040 Climbing Indianapolis Center
10:16AM 40.2881 -82.2425 243° Southwest 421 484 29,600 2,040 Climbing Indianapolis Center
10:17AM 40.2286 -82.3933 243° Southwest 432 497 31,800 2,040 Climbing Indianapolis Center
10:18AM 40.1731 -82.5325 242° Southwest 433 498 33,800 1,740 Climbing Indianapolis Center
10:19AM 40.0989 -82.6553 232° Southwest 432 497 35,500 1,620 Climbing Indianapolis Center
10:20AM 40.0136 -82.7661 225° Southwest 432 497 37,200 1,200 Climbing Indianapolis Center
10:21AM 39.9275 -82.8775 225° Southwest 434 499 38,000 360 Climbing Indianapolis Center
10:22AM 39.8386 -82.9919 225° Southwest 445 512 38,000  Level Indianapolis Center
10:23AM 39.7503 -83.1058 225° Southwest 445 512 38,000  Level Indianapolis Center
10:24AM 39.6439 -83.2408 224° Southwest 439 505 38,000 420 Level Indianapolis Center
10:25AM 39.5569 -83.3528 225° Southwest 436 502 38,900 1,140 Climbing Indianapolis Center
10:26AM 39.4722 -83.4611 225° Southwest 429 494 40,400 1,200 Climbing Indianapolis Center
10:27AM 39.3894 -83.5675 225° Southwest 420 483 41,400 840 Climbing Indianapolis Center
10:28AM 39.3061 -83.6728 224° Southwest 418 481 42,200 600 Climbing Indianapolis Center
10:29AM 39.2222 -83.7781 224° Southwest 420 483 42,700 360 Climbing Indianapolis Center
10:30AM 39.1383 -83.8850 225° Southwest 423 487 43,000 120 Climbing Indianapolis Center
10:31AM 39.0522 -83.9931 224° Southwest 430 495 43,000  Level Indianapolis Center
10:32AM 38.9450 -84.1258 224° Southwest 444 511 43,000  Level Indianapolis Center
10:33AM 38.8564 -84.2356 224° Southwest 444 511 43,000  Level Indianapolis Center
10:39AM 38.3699 -84.8314 224° Southwest 437 503 43,000  Level FlightAware ADS-B
10:39AM 38.3171 -84.8956 224° Southwest 437 503 43,000  Level FlightAware ADS-B
10:40AM 38.2729 -84.9490 223° Southwest 437 503 43,000  Level FlightAware ADS-B
10:40AM 38.2082 -85.0272 224° Southwest 438 504 43,000  Level FlightAware ADS-B
10:41AM 38.1612 -85.0836 223° Southwest 437 503 43,000  Level FlightAware ADS-B
10:41AM 38.1144 -85.1401 224° Southwest 438 504 43,000  Level FlightAware ADS-B
10:42AM 38.0704 -85.1930 223° Southwest 437 503 43,000  Level FlightAware ADS-B
10:43AM 38.0175 -85.2563 223° Southwest 438 504 43,000  Level FlightAware ADS-B
10:44AM 37.8554 -85.4496 223° Southwest 436 502 43,000  Level FlightAware ADS-B
10:45AM 37.8032 -85.5117 223° Southwest 435 501 43,000  Level FlightAware ADS-B
10:46AM 37.7554 -85.5683 223° Southwest 435 501 43,000  Level FlightAware ADS-B
10:46AM 37.7102 -85.6219 223° Southwest 432 497 43,000  Level FlightAware ADS-B
10:47AM 37.6586 -85.6829 223° Southwest 433 498 43,000  Level FlightAware ADS-B
10:49AM 37.4760 -85.8976 223° Southwest 430 495 43,000  Level FlightAware ADS-B
10:49AM 37.4328 -85.9508 223° Southwest 436 502 43,000  Level Memphis Center
10:50AM 37.3447 -86.0497 222° Southwest 436 502 43,000  Level Memphis Center
10:51AM 37.2586 -86.1508 223° Southwest 430 495 43,000  Level Memphis Center
10:58AM 36.7132 -86.7787 223° Southwest 424 488 43,000  Level FlightAware ADS-B
10:58AM 36.6671 -86.8313 222° Southwest 423 487 43,000  Level FlightAware ADS-B
11:03AM 36.2114 -87.3449 222° Southwest 423 487 43,000  Level FlightAware ADS-B
11:04AM 36.1673 -87.3943 222° Southwest 424 488 43,000  Level FlightAware ADS-B
11:04AM 36.1105 -87.4576 222° Southwest 424 488 43,000  Level FlightAware ADS-B
11:05AM 36.0262 -87.5515 222° Southwest 426 490 43,000  Level FlightAware ADS-B
11:06AM 35.9822 -87.6003 222° Southwest 427 491 43,000  Level FlightAware ADS-B
11:07AM 35.8558 -87.7447 222° Southwest 429 494 43,000  Level Memphis Center
11:08AM 35.7681 -87.8394 221° Southwest 429 494 43,000  Level Memphis Center
11:09AM 35.6883 -87.9261 221° Southwest 429 494 43,000  Level Memphis Center
11:10AM 35.6008 -88.0258 223° Southwest 429 494 43,000  Level Memphis Center
11:11AM 35.4978 -88.1053 212° Southwest 429 494 43,000  Level Memphis Center
11:12AM 35.3803 -88.1822 208° Southwest 435 501 43,000  Level Memphis Center
11:13AM 35.2689 -88.2539 208° Southwest 440 506 43,000  Level Memphis Center
11:14AM 35.1617 -88.3225 208° Southwest 446 513 43,000  Level Memphis Center
11:15AM 35.0522 -88.3936 208° Southwest 446 513 43,000  Level Memphis Center
11:16AM 34.9447 -88.4622 208° Southwest 446 513 43,000  Level Memphis Center
11:17AM 34.8414 -88.5200 205° Southwest 446 513 43,000  Level Memphis Center
11:18AM 34.7339 -88.5906 208° Southwest 438 504 43,000 -240 Level Memphis Center
11:19AM 34.6242 -88.6561 206° Southwest 438 504 42,600  Descending Memphis Center
11:20AM 34.5086 -88.7389 211° Southwest 444 511 43,000 -2,100 Climbing Memphis Center
11:21AM 34.3967 -88.8092 207° Southwest 449 517 38,500 -3,300 Descending Memphis Center
11:22AM 34.2847 -88.8714 205° Southwest 449 517 36,500 -1,800 Descending Memphis Center
11:23AM 34.1750 -88.9411 208° Southwest 449 517 35,000 -1,560 Descending Memphis Center
11:24AM 34.0653 -89.0081 207° Southwest 444 511 33,400 -1,440 Descending Memphis Center
11:25AM 33.9594 -89.0750 208° Southwest 439 505 32,200 -1,620 Descending Memphis Center
11:26AM 33.8494 -89.1417 207° Southwest 433 498 30,200 -2,100 Descending Memphis Center
11:27AM 33.7542 -89.2078 210° Southwest 438 504 28,100 -2,160 Descending Memphis Center
11:28AM 33.6419 -89.2742 206° Southwest 438 504 25,900 -1,740 Descending Memphis Center
11:29AM 33.5342 -89.3431 208° Southwest 445 512 24,700 -960 Descending Memphis Center
11:30AM 33.4239 -89.4089 206° Southwest 445 512 24,000 -360 Descending Memphis Center
11:31AM 33.3181 -89.4747 207° Southwest 440 506 24,000 -720 Level Memphis Center
11:32AM 33.2161 -89.5353 206° Southwest 428 493 22,600 -2,580 Descending Memphis Center
11:33AM 33.1183 -89.5933 206° Southwest 416 479 18,900 -3,300 Descending Memphis Center
11:34AM 33.0206 -89.6511 206° Southwest 404 465 16,000 -3,000 Descending Memphis Center
11:35AM 32.9292 -89.7064 207° Southwest 385 443 13,000 -2,340 Descending Memphis Center
11:36AM 32.8458 -89.7564 207° Southwest 363 418 11,400 -1,740 Descending Memphis Center
11:37AM 32.7689 -89.8039 207° Southwest 331 381 9,600 -2,400 Descending Memphis Center
11:38AM 32.6939 -89.8489 207° Southwest 314 361 6,700 -1,800 Descending Memphis Center
11:39AM 32.6231 -89.8714 195° South 290 334 6,000 -540 Descending Memphis Center
11:40AM 32.5561 -89.8867 191° South 264 304 5,700 -780 Descending Memphis Center
11:41AM 32.4894 -89.9017 191° South 251 289 4,500 -1,200 Descending Memphis Center
11:42AM 32.4228 -89.9192 192° South 251 289 3,300 -1,020 Descending Memphis Center
11:43AM 32.3644 -89.9492 203° Southwest 241 277 2,500 -360 Descending Memphis Center
11:44AM 32.3100 -89.9689 197° South 226 260 2,600 -240 Climbing Memphis Center
11:45AM 32.2683 -89.9936 207° Southwest 194 223 2,100 -660 Descending Memphis Center
11:46AM 32.2644 -90.0453 265° West 159 183 1,300 -720 Descending Memphis Center
11:47AM 32.2978 -90.0647 334° Northwest 104 120 700 -600 Descending Memphis Center